sensor_id;sensor_type;location;lat;lon;timestamp;pressure;altitude;pressure_sealevel;temperature;humidity
40285;BME280;25997;50.214;19.354;2022-10-31T00:00:51;98175.84;;;13.89;51.57
40285;BME280;25997;50.214;19.354;2022-10-31T00:03:55;98181.06;;;13.86;51.73
40285;BME280;25997;50.214;19.354;2022-10-31T00:06:57;98178.28;;;13.78;51.80
40285;BME280;25997;50.214;19.354;2022-10-31T00:10:00;98179.19;;;13.80;51.88
40285;BME280;25997;50.214;19.354;2022-10-31T00:13:02;98184.47;;;13.80;51.73
40285;BME280;25997;50.214;19.354;2022-10-31T00:16:06;98184.53;;;13.82;51.73
40285;BME280;25997;50.214;19.354;2022-10-31T00:19:16;98182.72;;;13.81;51.89
40285;BME280;25997;50.214;19.354;2022-10-31T00:22:18;98188.97;;;13.84;51.68
40285;BME280;25997;50.214;19.354;2022-10-31T00:25:21;98195.97;;;13.84;51.50
40285;BME280;25997;50.214;19.354;2022-10-31T00:28:23;98189.75;;;13.80;51.70
40285;BME280;25997;50.214;19.354;2022-10-31T00:31:26;98184.53;;;13.82;51.72
40285;BME280;25997;50.214;19.354;2022-10-31T00:34:30;98184.41;;;13.76;51.76
40285;BME280;25997;50.214;19.354;2022-10-31T00:37:34;98181.81;;;13.79;51.48
40285;BME280;25997;50.214;19.354;2022-10-31T00:40:37;98182.69;;;13.78;51.56
40285;BME280;25997;50.214;19.354;2022-10-31T00:43:39;98185.22;;;13.70;51.68
40285;BME280;25997;50.214;19.354;2022-10-31T00:46:42;98187.72;;;13.62;51.93
40285;BME280;25997;50.214;19.354;2022-10-31T00:49:45;98191.19;;;13.60;52.13
40285;BME280;25997;50.214;19.354;2022-10-31T00:52:48;98189.34;;;13.53;52.30
40285;BME280;25997;50.214;19.354;2022-10-31T00:55:51;98194.59;;;13.53;52.23
40285;BME280;25997;50.214;19.354;2022-10-31T00:58:54;98193.56;;;13.43;52.53
40285;BME280;25997;50.214;19.354;2022-10-31T01:01:56;98196.19;;;13.43;52.40
40285;BME280;25997;50.214;19.354;2022-10-31T01:05:01;98190.03;;;13.43;52.43
40285;BME280;25997;50.214;19.354;2022-10-31T01:08:04;98200.53;;;13.40;52.50
40285;BME280;25997;50.214;19.354;2022-10-31T01:11:10;98197.91;;;13.41;52.27
40285;BME280;25997;50.214;19.354;2022-10-31T01:14:14;98196.97;;;13.38;52.37
40285;BME280;25997;50.214;19.354;2022-10-31T01:17:17;98195.25;;;13.40;52.38
40285;BME280;25997;50.214;19.354;2022-10-31T01:20:23;98189.91;;;13.35;52.43
40285;BME280;25997;50.214;19.354;2022-10-31T01:23:25;98197.00;;;13.39;52.51
40285;BME280;25997;50.214;19.354;2022-10-31T01:26:30;98192.50;;;13.34;52.54
40285;BME280;25997;50.214;19.354;2022-10-31T01:29:33;98189.94;;;13.37;52.53
40285;BME280;25997;50.214;19.354;2022-10-31T01:32:35;98188.19;;;13.39;52.34
40285;BME280;25997;50.214;19.354;2022-10-31T01:35:39;98184.66;;;13.38;52.27
40285;BME280;25997;50.214;19.354;2022-10-31T01:38:42;98182.78;;;13.31;52.37
40285;BME280;25997;50.214;19.354;2022-10-31T01:41:46;98188.84;;;13.24;52.59
40285;BME280;25997;50.214;19.354;2022-10-31T01:44:55;98182.50;;;13.15;52.72
40285;BME280;25997;50.214;19.354;2022-10-31T01:47:58;98185.84;;;13.06;52.85
40285;BME280;25997;50.214;19.354;2022-10-31T01:51:02;98178.66;;;12.99;53.10
40285;BME280;25997;50.214;19.354;2022-10-31T01:54:08;98180.38;;;12.97;53.28
40285;BME280;25997;50.214;19.354;2022-10-31T01:57:13;98181.28;;;12.98;53.27
40285;BME280;25997;50.214;19.354;2022-10-31T02:00:18;98184.09;;;13.07;53.20
40285;BME280;25997;50.214;19.354;2022-10-31T02:03:22;98174.50;;;13.09;53.17
40285;BME280;25997;50.214;19.354;2022-10-31T02:06:34;98178.94;;;13.13;53.15
40285;BME280;25997;50.214;19.354;2022-10-31T02:09:39;98184.16;;;13.11;53.03
40285;BME280;25997;50.214;19.354;2022-10-31T02:12:43;98176.22;;;13.08;53.07
40285;BME280;25997;50.214;19.354;2022-10-31T02:15:49;98177.06;;;13.06;53.14
40285;BME280;25997;50.214;19.354;2022-10-31T02:18:53;98166.41;;;13.01;53.19
40285;BME280;25997;50.214;19.354;2022-10-31T02:22:04;98175.97;;;12.96;53.26
40285;BME280;25997;50.214;19.354;2022-10-31T02:25:29;98178.56;;;12.93;53.12
40285;BME280;25997;50.214;19.354;2022-10-31T02:29:05;98189.97;;;12.93;53.28
40285;BME280;25997;50.214;19.354;2022-10-31T02:32:17;98185.59;;;12.94;53.23
40285;BME280;25997;50.214;19.354;2022-10-31T02:35:39;98188.22;;;12.94;53.21
40285;BME280;25997;50.214;19.354;2022-10-31T02:38:50;98192.56;;;12.90;53.40
40285;BME280;25997;50.214;19.354;2022-10-31T02:42:09;98190.75;;;12.89;53.57
40285;BME280;25997;50.214;19.354;2022-10-31T02:45:21;98187.22;;;12.89;53.56
40285;BME280;25997;50.214;19.354;2022-10-31T02:48:31;98185.50;;;12.89;53.57
40285;BME280;25997;50.214;19.354;2022-10-31T02:51:36;98190.75;;;12.89;53.59
40285;BME280;25997;50.214;19.354;2022-10-31T02:54:39;98194.31;;;12.91;53.59
40285;BME280;25997;50.214;19.354;2022-10-31T02:57:43;98200.41;;;12.89;53.73
40285;BME280;25997;50.214;19.354;2022-10-31T03:00:52;98203.03;;;12.89;53.71
40285;BME280;25997;50.214;19.354;2022-10-31T03:04:16;98206.56;;;12.88;53.75
40285;BME280;25997;50.214;19.354;2022-10-31T03:07:28;98209.03;;;12.80;53.88
40285;BME280;25997;50.214;19.354;2022-10-31T03:10:41;98210.75;;;12.78;53.95
40285;BME280;25997;50.214;19.354;2022-10-31T03:13:45;98206.47;;;12.83;53.87
40285;BME280;25997;50.214;19.354;2022-10-31T03:16:50;98202.72;;;12.71;53.78
40285;BME280;25997;50.214;19.354;2022-10-31T03:19:58;98203.47;;;12.65;53.91
40285;BME280;25997;50.214;19.354;2022-10-31T03:23:04;98208.66;;;12.62;54.02
40285;BME280;25997;50.214;19.354;2022-10-31T03:26:10;98206.00;;;12.61;54.13
40285;BME280;25997;50.214;19.354;2022-10-31T03:29:16;98205.97;;;12.59;54.03
40285;BME280;25997;50.214;19.354;2022-10-31T03:32:23;98199.81;;;12.59;54.01
40285;BME280;25997;50.214;19.354;2022-10-31T03:35:30;98205.88;;;12.55;54.12
40285;BME280;25997;50.214;19.354;2022-10-31T03:38:37;98206.69;;;12.51;54.24
40285;BME280;25997;50.214;19.354;2022-10-31T03:41:47;98209.25;;;12.49;54.09
40285;BME280;25997;50.214;19.354;2022-10-31T03:44:55;98205.72;;;12.47;54.18
40285;BME280;25997;50.214;19.354;2022-10-31T03:47:58;98215.25;;;12.42;54.26
40285;BME280;25997;50.214;19.354;2022-10-31T03:51:07;98208.19;;;12.40;54.43
40285;BME280;25997;50.214;19.354;2022-10-31T03:54:17;98217.84;;;12.39;54.35
40285;BME280;25997;50.214;19.354;2022-10-31T03:57:27;98228.38;;;12.39;54.31
40285;BME280;25997;50.214;19.354;2022-10-31T04:00:33;98228.25;;;12.33;54.52
40285;BME280;25997;50.214;19.354;2022-10-31T04:03:37;98229.94;;;12.31;54.53
40285;BME280;25997;50.214;19.354;2022-10-31T04:06:44;98234.28;;;12.29;54.55
40285;BME280;25997;50.214;19.354;2022-10-31T04:09:49;98224.56;;;12.27;54.55
40285;BME280;25997;50.214;19.354;2022-10-31T04:12:59;98237.56;;;12.19;54.75
40285;BME280;25997;50.214;19.354;2022-10-31T04:16:11;98222.50;;;12.13;54.80
40285;BME280;25997;50.214;19.354;2022-10-31T04:19:15;98229.44;;;12.10;54.96
40285;BME280;25997;50.214;19.354;2022-10-31T04:22:19;98237.22;;;12.05;55.04
40285;BME280;25997;50.214;19.354;2022-10-31T04:25:22;98237.97;;;12.00;55.20
40285;BME280;25997;50.214;19.354;2022-10-31T04:28:26;98237.81;;;11.94;55.21
40285;BME280;25997;50.214;19.354;2022-10-31T04:31:28;98242.97;;;11.89;55.32
40285;BME280;25997;50.214;19.354;2022-10-31T04:34:31;98235.84;;;11.84;55.29
40285;BME280;25997;50.214;19.354;2022-10-31T04:37:35;98240.91;;;11.78;55.58
40285;BME280;25997;50.214;19.354;2022-10-31T04:40:38;98236.41;;;11.72;55.66
40285;BME280;25997;50.214;19.354;2022-10-31T04:44:07;98235.50;;;11.70;55.60
40285;BME280;25997;50.214;19.354;2022-10-31T04:47:10;98246.81;;;11.68;55.77
40285;BME280;25997;50.214;19.354;2022-10-31T04:50:12;98235.47;;;11.69;55.70
40285;BME280;25997;50.214;19.354;2022-10-31T04:53:16;98234.59;;;11.70;55.67
40285;BME280;25997;50.214;19.354;2022-10-31T04:56:51;98232.78;;;11.67;55.95
40285;BME280;25997;50.214;19.354;2022-10-31T04:59:57;98227.56;;;11.69;55.99
40285;BME280;25997;50.214;19.354;2022-10-31T05:03:00;98231.03;;;11.68;55.85
40285;BME280;25997;50.214;19.354;2022-10-31T05:06:02;98236.31;;;11.68;55.84
40285;BME280;25997;50.214;19.354;2022-10-31T05:09:07;98234.56;;;11.68;55.78
40285;BME280;25997;50.214;19.354;2022-10-31T05:12:09;98231.94;;;11.68;55.82
40285;BME280;25997;50.214;19.354;2022-10-31T05:15:30;98238.03;;;11.67;55.83
40285;BME280;25997;50.214;19.354;2022-10-31T05:18:48;98231.81;;;11.64;55.89
40285;BME280;25997;50.214;19.354;2022-10-31T05:22:23;98235.28;;;11.63;55.93
40285;BME280;25997;50.214;19.354;2022-10-31T05:25:28;98246.63;;;11.60;56.08
40285;BME280;25997;50.214;19.354;2022-10-31T05:28:31;98244.88;;;11.59;56.09
40285;BME280;25997;50.214;19.354;2022-10-31T05:31:34;98248.28;;;11.55;56.17
40285;BME280;25997;50.214;19.354;2022-10-31T05:34:38;98247.34;;;11.53;56.18
40285;BME280;25997;50.214;19.354;2022-10-31T05:38:06;98253.34;;;11.49;56.27
40285;BME280;25997;50.214;19.354;2022-10-31T05:41:10;98250.69;;;11.48;56.18
40285;BME280;25997;50.214;19.354;2022-10-31T05:44:17;98246.22;;;11.43;56.33
40285;BME280;25997;50.214;19.354;2022-10-31T05:47:30;98258.44;;;11.41;56.55
40285;BME280;25997;50.214;19.354;2022-10-31T05:50:53;98257.53;;;11.41;56.54
40285;BME280;25997;50.214;19.354;2022-10-31T05:53:57;98256.63;;;11.40;56.54
40285;BME280;25997;50.214;19.354;2022-10-31T05:57:03;98268.94;;;11.41;56.44
40285;BME280;25997;50.214;19.354;2022-10-31T06:00:08;98274.16;;;11.40;56.59
40285;BME280;25997;50.214;19.354;2022-10-31T06:03:22;98275.91;;;11.39;56.50
40285;BME280;25997;50.214;19.354;2022-10-31T06:06:28;98276.69;;;11.35;56.63
40285;BME280;25997;50.214;19.354;2022-10-31T06:09:31;98275.78;;;11.35;56.71
40285;BME280;25997;50.214;19.354;2022-10-31T06:12:36;98272.28;;;11.36;56.81
40285;BME280;25997;50.214;19.354;2022-10-31T06:16:04;98277.63;;;11.37;56.66
40285;BME280;25997;50.214;19.354;2022-10-31T06:19:11;98280.28;;;11.39;56.67
40285;BME280;25997;50.214;19.354;2022-10-31T06:22:13;98291.00;;;11.47;56.51
40285;BME280;25997;50.214;19.354;2022-10-31T06:25:18;98288.44;;;11.50;56.56
40285;BME280;25997;50.214;19.354;2022-10-31T06:28:25;98292.06;;;11.53;56.60
40285;BME280;25997;50.214;19.354;2022-10-31T06:31:33;98301.00;;;11.60;56.52
40285;BME280;25997;50.214;19.354;2022-10-31T06:34:36;98299.06;;;11.54;56.59
40285;BME280;25997;50.214;19.354;2022-10-31T06:37:38;98296.56;;;11.59;56.63
40285;BME280;25997;50.214;19.354;2022-10-31T06:41:16;98297.59;;;11.65;56.65
40285;BME280;25997;50.214;19.354;2022-10-31T06:44:24;98297.72;;;11.70;56.67
40285;BME280;25997;50.214;19.354;2022-10-31T06:47:51;98296.25;;;11.81;56.54
40285;BME280;25997;50.214;19.354;2022-10-31T06:51:00;98297.41;;;11.92;56.40
40285;BME280;25997;50.214;19.354;2022-10-31T06:54:03;98303.72;;;11.98;56.52
40285;BME280;25997;50.214;19.354;2022-10-31T06:57:06;98302.19;;;12.06;56.39
40285;BME280;25997;50.214;19.354;2022-10-31T07:00:11;98308.41;;;12.10;56.53
40285;BME280;25997;50.214;19.354;2022-10-31T07:03:18;98313.03;;;12.20;56.43
40285;BME280;25997;50.214;19.354;2022-10-31T07:06:22;98310.63;;;12.28;56.29
40285;BME280;25997;50.214;19.354;2022-10-31T07:09:25;98308.19;;;12.37;56.20
40285;BME280;25997;50.214;19.354;2022-10-31T07:12:28;98313.66;;;12.44;56.00
40285;BME280;25997;50.214;19.354;2022-10-31T07:15:35;98313.00;;;12.54;56.07
40285;BME280;25997;50.214;19.354;2022-10-31T07:18:38;98320.09;;;12.58;55.81
40285;BME280;25997;50.214;19.354;2022-10-31T07:21:42;98319.41;;;12.67;55.71
40285;BME280;25997;50.214;19.354;2022-10-31T07:24:48;98325.81;;;12.78;55.53
40285;BME280;25997;50.214;19.354;2022-10-31T07:28:17;98324.97;;;12.80;55.29
40285;BME280;25997;50.214;19.354;2022-10-31T07:31:25;98318.25;;;12.93;55.36
40285;BME280;25997;50.214;19.354;2022-10-31T07:34:31;98316.81;;;13.07;55.04
40285;BME280;25997;50.214;19.354;2022-10-31T07:37:54;98330.19;;;13.16;54.81
40285;BME280;25997;50.214;19.354;2022-10-31T07:40:57;98328.63;;;13.26;54.69
40285;BME280;25997;50.214;19.354;2022-10-31T07:44:03;98329.75;;;13.38;54.66
40285;BME280;25997;50.214;19.354;2022-10-31T07:47:25;98340.59;;;13.53;54.39
40285;BME280;25997;50.214;19.354;2022-10-31T07:50:46;98331.97;;;13.62;53.96
40285;BME280;25997;50.214;19.354;2022-10-31T07:54:08;98339.16;;;13.71;54.04
40285;BME280;25997;50.214;19.354;2022-10-31T07:57:12;98340.19;;;13.80;53.88
40285;BME280;25997;50.214;19.354;2022-10-31T08:00:15;98338.75;;;13.96;53.86
40285;BME280;25997;50.214;19.354;2022-10-31T08:03:19;98335.47;;;14.09;53.52
40285;BME280;25997;50.214;19.354;2022-10-31T08:06:40;98333.88;;;14.20;53.49
40285;BME280;25997;50.214;19.354;2022-10-31T08:09:54;98335.97;;;14.38;53.19
40285;BME280;25997;50.214;19.354;2022-10-31T08:13:02;98335.28;;;14.52;53.04
40285;BME280;25997;50.214;19.354;2022-10-31T08:16:07;98346.16;;;14.72;52.98
40285;BME280;25997;50.214;19.354;2022-10-31T08:19:16;98345.47;;;14.82;52.63
40285;BME280;25997;50.214;19.354;2022-10-31T08:22:18;98337.69;;;14.94;52.36
40285;BME280;25997;50.214;19.354;2022-10-31T08:25:23;98339.56;;;15.02;52.07
40285;BME280;25997;50.214;19.354;2022-10-31T08:28:27;98344.19;;;15.17;51.84
40285;BME280;25997;50.214;19.354;2022-10-31T08:31:30;98341.59;;;15.25;51.90
40285;BME280;25997;50.214;19.354;2022-10-31T08:34:52;98341.94;;;15.50;51.50
40285;BME280;25997;50.214;19.354;2022-10-31T08:38:23;98336.69;;;15.58;51.45
40285;BME280;25997;50.214;19.354;2022-10-31T08:41:26;98334.28;;;15.74;50.99
40285;BME280;25997;50.214;19.354;2022-10-31T08:44:29;98337.97;;;15.90;50.67
40285;BME280;25997;50.214;19.354;2022-10-31T08:47:31;98336.34;;;16.07;50.61
40285;BME280;25997;50.214;19.354;2022-10-31T08:50:36;98334.75;;;16.27;50.07
40285;BME280;25997;50.214;19.354;2022-10-31T08:53:39;98340.25;;;16.45;49.82
40285;BME280;25997;50.214;19.354;2022-10-31T08:57:00;98330.59;;;16.55;49.68
40285;BME280;25997;50.214;19.354;2022-10-31T09:00:12;98343.06;;;16.70;49.10
40285;BME280;25997;50.214;19.354;2022-10-31T09:03:41;98337.88;;;16.88;48.82
40285;BME280;25997;50.214;19.354;2022-10-31T09:06:46;98345.03;;;17.07;48.60
40285;BME280;25997;50.214;19.354;2022-10-31T09:09:50;98339.75;;;17.11;48.15
40285;BME280;25997;50.214;19.354;2022-10-31T09:12:57;98341.66;;;17.31;47.99
40285;BME280;25997;50.214;19.354;2022-10-31T09:16:38;98347.91;;;17.42;47.66
40285;BME280;25997;50.214;19.354;2022-10-31T09:19:47;98346.16;;;17.54;47.45
40285;BME280;25997;50.214;19.354;2022-10-31T09:22:57;98351.56;;;17.75;47.04
40285;BME280;25997;50.214;19.354;2022-10-31T09:26:01;98349.84;;;17.94;46.82
40285;BME280;25997;50.214;19.354;2022-10-31T09:29:07;98354.28;;;18.00;46.19
40285;BME280;25997;50.214;19.354;2022-10-31T09:32:12;98356.06;;;18.14;46.16
40285;BME280;25997;50.214;19.354;2022-10-31T09:35:19;98349.88;;;18.21;46.08
40285;BME280;25997;50.214;19.354;2022-10-31T09:38:23;98343.69;;;18.42;45.62
40285;BME280;25997;50.214;19.354;2022-10-31T09:41:32;98347.22;;;18.63;45.41
40285;BME280;25997;50.214;19.354;2022-10-31T09:44:50;98355.16;;;18.89;44.93
40285;BME280;25997;50.214;19.354;2022-10-31T09:48:19;98358.63;;;19.23;44.83
40285;BME280;25997;50.214;19.354;2022-10-31T09:51:44;98364.72;;;19.64;44.64
40285;BME280;25997;50.214;19.354;2022-10-31T09:55:00;98354.78;;;19.89;44.45
40285;BME280;25997;50.214;19.354;2022-10-31T09:58:07;98352.00;;;20.18;43.89
40285;BME280;25997;50.214;19.354;2022-10-31T10:01:28;98344.47;;;20.66;42.62
40285;BME280;25997;50.214;19.354;2022-10-31T10:04:36;98347.72;;;20.99;43.32
40285;BME280;25997;50.214;19.354;2022-10-31T10:07:54;98352.44;;;21.55;42.29
40285;BME280;25997;50.214;19.354;2022-10-31T10:11:08;98351.78;;;22.03;41.32
40285;BME280;25997;50.214;19.354;2022-10-31T10:14:52;98356.34;;;22.51;40.88
40285;BME280;25997;50.214;19.354;2022-10-31T10:18:03;98356.16;;;22.65;40.66
40285;BME280;25997;50.214;19.354;2022-10-31T10:21:19;98360.47;;;22.73;38.97
40285;BME280;25997;50.214;19.354;2022-10-31T10:24:33;98354.72;;;22.43;40.40
40285;BME280;25997;50.214;19.354;2022-10-31T10:27:52;98349.59;;;22.82;40.63
40285;BME280;25997;50.214;19.354;2022-10-31T10:30:59;98350.78;;;23.14;39.79
40285;BME280;25997;50.214;19.354;2022-10-31T10:34:10;98347.06;;;23.24;39.26
40285;BME280;25997;50.214;19.354;2022-10-31T10:37:22;98346.13;;;23.26;37.24
40285;BME280;25997;50.214;19.354;2022-10-31T10:40:27;98348.44;;;23.44;39.19
40285;BME280;25997;50.214;19.354;2022-10-31T10:43:33;98353.53;;;23.56;38.25
40285;BME280;25997;50.214;19.354;2022-10-31T10:46:41;98350.50;;;23.72;38.07
40285;BME280;25997;50.214;19.354;2022-10-31T10:50:03;98339.97;;;23.62;38.46
40285;BME280;25997;50.214;19.354;2022-10-31T10:53:17;98342.75;;;23.58;37.17
40285;BME280;25997;50.214;19.354;2022-10-31T10:56:41;98337.72;;;23.44;36.53
40285;BME280;25997;50.214;19.354;2022-10-31T10:59:49;98337.44;;;23.56;37.27
40285;BME280;25997;50.214;19.354;2022-10-31T11:02:53;98338.25;;;23.61;36.92
40285;BME280;25997;50.214;19.354;2022-10-31T11:05:57;98333.66;;;23.67;36.84
40285;BME280;25997;50.214;19.354;2022-10-31T11:09:08;98331.56;;;23.81;35.96
40285;BME280;25997;50.214;19.354;2022-10-31T11:12:15;98332.94;;;24.00;35.49
40285;BME280;25997;50.214;19.354;2022-10-31T11:15:23;98323.16;;;24.34;36.02
40285;BME280;25997;50.214;19.354;2022-10-31T11:18:29;98327.81;;;24.63;36.00
40285;BME280;25997;50.214;19.354;2022-10-31T11:21:31;98329.41;;;25.05;35.49
40285;BME280;25997;50.214;19.354;2022-10-31T11:24:40;98325.56;;;25.46;34.61
40285;BME280;25997;50.214;19.354;2022-10-31T11:27:42;98327.69;;;25.65;34.46
40285;BME280;25997;50.214;19.354;2022-10-31T11:30:48;98323.81;;;25.76;33.77
40285;BME280;25997;50.214;19.354;2022-10-31T11:33:54;98323.13;;;25.67;33.85
40285;BME280;25997;50.214;19.354;2022-10-31T11:37:04;98319.59;;;25.65;33.66
40285;BME280;25997;50.214;19.354;2022-10-31T11:40:18;98322.28;;;25.95;32.72
40285;BME280;25997;50.214;19.354;2022-10-31T11:43:22;98318.84;;;26.19;33.46
40285;BME280;25997;50.214;19.354;2022-10-31T11:46:33;98327.34;;;26.62;32.20
40285;BME280;25997;50.214;19.354;2022-10-31T11:49:38;98322.91;;;26.86;32.89
40285;BME280;25997;50.214;19.354;2022-10-31T11:52:42;98325.56;;;27.12;32.38
40285;BME280;25997;50.214;19.354;2022-10-31T11:55:45;98319.25;;;27.38;31.99
40285;BME280;25997;50.214;19.354;2022-10-31T11:58:55;98318.13;;;27.68;31.18
40285;BME280;25997;50.214;19.354;2022-10-31T12:02:00;98316.63;;;27.82;31.45
40285;BME280;25997;50.214;19.354;2022-10-31T12:05:08;98310.81;;;28.16;31.40
40285;BME280;25997;50.214;19.354;2022-10-31T12:08:13;98313.75;;;28.53;31.27
40285;BME280;25997;50.214;19.354;2022-10-31T12:11:27;98308.34;;;28.75;30.62
40285;BME280;25997;50.214;19.354;2022-10-31T12:14:36;98317.25;;;29.19;29.79
40285;BME280;25997;50.214;19.354;2022-10-31T12:17:50;98307.03;;;29.25;29.55
40285;BME280;25997;50.214;19.354;2022-10-31T12:21:02;98306.16;;;29.25;29.49
40285;BME280;25997;50.214;19.354;2022-10-31T12:24:20;98309.19;;;29.38;28.99
40285;BME280;25997;50.214;19.354;2022-10-31T12:27:35;98303.09;;;29.33;28.71
40285;BME280;25997;50.214;19.354;2022-10-31T12:30:54;98303.72;;;29.19;29.08
40285;BME280;25997;50.214;19.354;2022-10-31T12:34:16;98297.00;;;29.07;28.56
40285;BME280;25997;50.214;19.354;2022-10-31T12:37:36;98295.59;;;28.99;28.62
40285;BME280;25997;50.214;19.354;2022-10-31T12:40:53;98298.59;;;29.33;28.30
40285;BME280;25997;50.214;19.354;2022-10-31T12:44:04;98295.00;;;29.12;28.43
40285;BME280;25997;50.214;19.354;2022-10-31T12:47:25;98293.38;;;29.29;28.41
40285;BME280;25997;50.214;19.354;2022-10-31T12:50:47;98291.69;;;29.65;28.42
40285;BME280;25997;50.214;19.354;2022-10-31T12:54:06;98281.09;;;29.79;27.77
40285;BME280;25997;50.214;19.354;2022-10-31T12:57:19;98284.66;;;29.98;28.25
40285;BME280;25997;50.214;19.354;2022-10-31T13:00:25;98284.56;;;30.37;28.09
40285;BME280;25997;50.214;19.354;2022-10-31T13:03:31;98294.47;;;30.38;27.32
40285;BME280;25997;50.214;19.354;2022-10-31T13:06:40;98281.50;;;30.07;27.96
40285;BME280;25997;50.214;19.354;2022-10-31T13:09:50;98283.09;;;29.55;28.54
40285;BME280;25997;50.214;19.354;2022-10-31T13:12:58;98272.13;;;28.79;29.01
40285;BME280;25997;50.214;19.354;2022-10-31T13:16:13;98265.63;;;28.41;29.34
40285;BME280;25997;50.214;19.354;2022-10-31T13:19:20;98277.38;;;28.19;29.15
40285;BME280;25997;50.214;19.354;2022-10-31T13:22:30;98270.34;;;28.15;29.12
40285;BME280;25997;50.214;19.354;2022-10-31T13:25:39;98275.53;;;27.98;29.32
40285;BME280;25997;50.214;19.354;2022-10-31T13:28:46;98276.47;;;27.97;29.31
40285;BME280;25997;50.214;19.354;2022-10-31T13:31:49;98276.56;;;27.94;29.68
40285;BME280;25997;50.214;19.354;2022-10-31T13:34:53;98269.28;;;27.74;29.13
40285;BME280;25997;50.214;19.354;2022-10-31T13:38:09;98270.13;;;27.28;29.62
40285;BME280;25997;50.214;19.354;2022-10-31T13:41:22;98272.03;;;27.26;29.84
40285;BME280;25997;50.214;19.354;2022-10-31T13:44:35;98267.13;;;27.36;29.44
40285;BME280;25997;50.214;19.354;2022-10-31T13:47:41;98271.78;;;27.32;29.78
40285;BME280;25997;50.214;19.354;2022-10-31T13:50:55;98266.28;;;27.35;29.50
40285;BME280;25997;50.214;19.354;2022-10-31T13:54:00;98267.38;;;27.30;29.63
40285;BME280;25997;50.214;19.354;2022-10-31T13:57:06;98269.50;;;27.22;29.50
40285;BME280;25997;50.214;19.354;2022-10-31T14:00:23;98268.13;;;27.10;29.58
40285;BME280;25997;50.214;19.354;2022-10-31T14:03:26;98270.03;;;27.06;29.86
40285;BME280;25997;50.214;19.354;2022-10-31T14:06:42;98272.72;;;26.82;29.97
40285;BME280;25997;50.214;19.354;2022-10-31T14:09:54;98276.13;;;26.87;29.84
40285;BME280;25997;50.214;19.354;2022-10-31T14:13:04;98265.00;;;26.71;29.75
40285;BME280;25997;50.214;19.354;2022-10-31T14:16:22;98257.38;;;26.31;30.64
40285;BME280;25997;50.214;19.354;2022-10-31T14:19:26;98257.44;;;26.30;30.59
40285;BME280;25997;50.214;19.354;2022-10-31T14:22:30;98259.25;;;26.29;30.91
40285;BME280;25997;50.214;19.354;2022-10-31T14:25:36;98249.44;;;26.27;30.45
40285;BME280;25997;50.214;19.354;2022-10-31T14:28:38;98261.63;;;26.12;30.60
40285;BME280;25997;50.214;19.354;2022-10-31T14:31:43;98253.97;;;25.99;30.64
40285;BME280;25997;50.214;19.354;2022-10-31T14:34:52;98256.31;;;25.82;30.78
40285;BME280;25997;50.214;19.354;2022-10-31T14:38:13;98254.69;;;25.48;31.18
40285;BME280;25997;50.214;19.354;2022-10-31T14:41:37;98247.41;;;25.21;31.27
40285;BME280;25997;50.214;19.354;2022-10-31T14:44:56;98246.66;;;24.84;31.73
40285;BME280;25997;50.214;19.354;2022-10-31T14:48:12;98240.19;;;24.59;31.87
40285;BME280;25997;50.214;19.354;2022-10-31T14:51:22;98236.25;;;24.40;32.27
40285;BME280;25997;50.214;19.354;2022-10-31T14:54:28;98228.69;;;24.18;32.68
40285;BME280;25997;50.214;19.354;2022-10-31T14:57:37;98238.41;;;23.89;33.23
40285;BME280;25997;50.214;19.354;2022-10-31T15:00:42;98234.66;;;23.56;33.55
40285;BME280;25997;50.214;19.354;2022-10-31T15:03:46;98235.69;;;23.08;33.83
40285;BME280;25997;50.214;19.354;2022-10-31T15:06:51;98233.16;;;22.54;34.62
40285;BME280;25997;50.214;19.354;2022-10-31T15:09:56;98232.19;;;22.09;35.51
40285;BME280;25997;50.214;19.354;2022-10-31T15:13:10;98234.56;;;21.71;36.03
40285;BME280;25997;50.214;19.354;2022-10-31T15:16:15;98228.69;;;21.48;36.31
40285;BME280;25997;50.214;19.354;2022-10-31T15:19:22;98229.84;;;21.26;36.78
40285;BME280;25997;50.214;19.354;2022-10-31T15:22:26;98221.25;;;21.03;36.95
40285;BME280;25997;50.214;19.354;2022-10-31T15:25:34;98228.69;;;20.80;37.29
40285;BME280;25997;50.214;19.354;2022-10-31T15:28:38;98220.84;;;20.61;37.41
40285;BME280;25997;50.214;19.354;2022-10-31T15:31:49;98226.34;;;20.45;38.00
40285;BME280;25997;50.214;19.354;2022-10-31T15:34:53;98222.97;;;20.28;37.96
40285;BME280;25997;50.214;19.354;2022-10-31T15:37:57;98223.16;;;20.11;38.32
40285;BME280;25997;50.214;19.354;2022-10-31T15:41:05;98216.97;;;19.98;38.31
40285;BME280;25997;50.214;19.354;2022-10-31T15:44:23;98211.75;;;19.85;38.59
40285;BME280;25997;50.214;19.354;2022-10-31T15:47:29;98218.97;;;19.74;38.63
40285;BME280;25997;50.214;19.354;2022-10-31T15:50:41;98233.22;;;19.67;38.83
40285;BME280;25997;50.214;19.354;2022-10-31T15:53:49;98222.66;;;19.58;38.88
40285;BME280;25997;50.214;19.354;2022-10-31T15:56:52;98232.50;;;19.47;38.93
40285;BME280;25997;50.214;19.354;2022-10-31T15:59:56;98236.97;;;19.39;39.13
40285;BME280;25997;50.214;19.354;2022-10-31T16:03:07;98238.72;;;19.33;39.48
40285;BME280;25997;50.214;19.354;2022-10-31T16:06:20;98236.06;;;19.33;39.39
40285;BME280;25997;50.214;19.354;2022-10-31T16:09:24;98229.88;;;19.30;39.23
40285;BME280;25997;50.214;19.354;2022-10-31T16:12:31;98241.44;;;19.24;39.40
40285;BME280;25997;50.214;19.354;2022-10-31T16:15:36;98237.03;;;19.20;39.57
40285;BME280;25997;50.214;19.354;2022-10-31T16:18:39;98240.63;;;19.15;39.65
40285;BME280;25997;50.214;19.354;2022-10-31T16:21:43;98241.53;;;19.11;39.75
40285;BME280;25997;50.214;19.354;2022-10-31T16:24:49;98243.31;;;19.07;39.82
40285;BME280;25997;50.214;19.354;2022-10-31T16:27:55;98242.47;;;19.04;39.82